Time;durP1;ratioP1;P1;durP2;ratioP2;P2;SDS_P1;SDS_P2;PMS_P1;PMS_P2;Temp;Humidity;BMP_temperature;BMP_pressure;BME280_temperature;BME280_humidity;BME280_pressure;Samples;Min_cycle;Max_cycle;Signal;HPM_P1;HPM_P2
2022/06/13 00:01:12;;;;;;;9.38;6.17;;;;;;;18.32;86.87;99045.94;1625195;88;21073;-78
2022/06/13 00:03:40;;;;;;;10.80;6.83;;;;;;;18.31;86.43;99048.69;1626689;86;21555;-78
2022/06/13 00:06:07;;;;;;;9.43;5.90;;;;;;;18.27;87.16;99048.84;1625013;87;21077;-78
2022/06/13 00:08:35;;;;;;;11.38;6.55;;;;;;;18.24;87.61;99050.80;1624623;86;21023;-79
2022/06/13 00:11:03;;;;;;;11.78;5.70;;;;;;;18.24;87.75;99052.98;1624559;87;21034;-79
2022/06/13 00:13:29;;;;;;;10.03;5.92;;;;;;;18.20;87.50;99050.13;1602615;88;21074;-78
2022/06/13 00:15:56;;;;;;;14.28;6.50;;;;;;;18.21;87.65;99050.52;1621817;87;21077;-78
2022/06/13 00:18:24;;;;;;;8.15;6.03;;;;;;;18.21;87.03;99044.41;1633445;86;21047;-79
2022/06/13 00:20:51;;;;;;;12.15;6.33;;;;;;;18.18;86.93;99046.73;1619841;87;21042;-79
2022/06/13 00:23:17;;;;;;;9.70;6.20;;;;;;;18.15;88.15;99040.82;1607567;88;21018;-79
2022/06/13 00:25:44;;;;;;;15.35;6.47;;;;;;;18.13;87.44;99044.01;1618269;87;21066;-78
2022/06/13 00:28:11;;;;;;;11.95;6.10;;;;;;;18.09;87.26;99045.96;1634946;86;21078;-79
2022/06/13 00:30:38;;;;;;;15.35;6.45;;;;;;;18.07;86.76;99048.67;1614978;87;21070;-79
2022/06/13 00:33:04;;;;;;;9.73;6.08;;;;;;;18.03;87.48;99043.20;1650579;85;21071;-79
2022/06/13 00:35:31;;;;;;;13.43;5.95;;;;;;;18.01;89.06;99043.76;1633313;86;21081;-79
2022/06/13 00:37:58;;;;;;;8.55;5.42;;;;;;;18.02;89.01;99050.70;1652179;86;21008;-79
2022/06/13 00:40:24;;;;;;;9.15;5.62;;;;;;;18.01;88.60;99039.81;1631466;86;21084;-78
2022/06/13 00:42:51;;;;;;;9.73;5.85;;;;;;;17.97;88.11;99038.30;1651951;85;21020;-79
2022/06/13 00:45:23;;;;;;;8.90;6.10;;;;;;;17.97;88.03;99044.03;1631411;86;21037;-79
2022/06/13 00:47:54;;;;;;;12.63;6.10;;;;;;;17.95;88.23;99044.11;1651628;85;21107;-79
2022/06/13 00:50:29;;;;;;;13.25;6.60;;;;;;;17.92;88.35;99041.64;1635439;86;21112;-79
2022/06/13 00:53:11;;;;;;;11.83;5.83;;;;;;;17.90;87.67;99030.36;1651762;85;21095;-80
2022/06/13 00:55:58;;;;;;;9.40;5.53;;;;;;;17.90;87.37;99034.30;1632979;86;21253;-79
2022/06/13 00:58:29;;;;;;;9.95;5.75;;;;;;;17.77;87.91;99028.86;1651941;85;21004;-79
2022/06/13 01:00:58;;;;;;;10.28;6.05;;;;;;;17.73;88.54;99033.06;1629054;86;21041;-79
2022/06/13 01:03:27;;;;;;;13.30;5.60;;;;;;;17.70;89.22;99036.69;1645269;85;21591;-79
2022/06/13 01:05:57;;;;;;;11.83;5.78;;;;;;;17.68;90.06;99038.08;1632534;86;21057;-79
2022/06/13 01:08:26;;;;;;;12.13;5.95;;;;;;;17.69;89.02;99038.48;1625698;87;20990;-79
2022/06/13 01:11:16;;;;;;;12.45;7.20;;;;;;;17.70;88.74;99033.59;1635450;86;21532;-79
2022/06/13 01:14:18;;;;;;;12.28;7.45;;;;;;;17.59;90.20;99031.20;1648009;85;21040;-79
2022/06/13 01:17:14;;;;;;;16.23;8.33;;;;;;;17.51;91.16;99026.36;1629473;86;21556;-79
2022/06/13 01:20:21;;;;;;;16.07;7.75;;;;;;;17.49;90.64;99022.97;1651967;85;21028;-80
2022/06/13 01:23:28;;;;;;;11.55;7.22;;;;;;;17.50;90.46;99020.70;1626281;86;21048;-82
2022/06/13 01:26:15;;;;;;;14.18;8.08;;;;;;;17.39;91.94;99012.55;1649502;85;21119;-79
2022/06/13 01:29:36;;;;;;;16.02;8.20;;;;;;;17.34;92.88;99012.80;1591378;87;21040;-79
2022/06/13 01:32:17;;;;;;;14.45;8.50;;;;;;;17.31;91.98;99014.30;1619824;86;21054;-80
2022/06/13 01:35:01;;;;;;;14.03;7.90;;;;;;;17.29;90.76;99018.32;1666406;85;20992;-80
2022/06/13 01:37:51;;;;;;;12.85;7.33;;;;;;;17.29;90.67;99016.17;1629071;86;21558;-78
2022/06/13 01:40:32;;;;;;;11.65;7.67;;;;;;;17.25;92.08;99012.84;1614433;86;22147;-79
2022/06/13 01:43:14;;;;;;;14.93;7.22;;;;;;;17.25;91.47;99003.66;1623787;87;21042;-79
2022/06/13 01:45:48;;;;;;;13.68;6.55;;;;;;;17.25;91.92;99002.34;1621535;86;21029;-78
2022/06/13 01:48:39;;;;;;;11.60;6.87;;;;;;;17.26;91.54;99001.87;1632908;86;21030;-79
2022/06/13 01:51:23;;;;;;;13.50;6.72;;;;;;;17.23;91.51;99002.02;1594527;88;21559;-79
2022/06/13 01:54:00;;;;;;;12.68;6.97;;;;;;;17.24;91.26;99003.73;1599494;88;21985;-81
2022/06/13 01:56:35;;;;;;;14.30;7.12;;;;;;;17.23;90.58;99006.83;1583422;91;21096;-79
2022/06/13 01:59:19;;;;;;;13.05;7.58;;;;;;;17.21;91.75;98999.94;1599429;88;22230;-78
2022/06/13 02:02:14;;;;;;;13.85;7.03;;;;;;;17.21;91.55;99000.81;1598213;89;21010;-82
2022/06/13 02:04:53;;;;;;;19.85;7.97;;;;;;;17.23;90.77;99002.02;1626304;86;21061;-78
2022/06/13 02:07:27;;;;;;;13.93;7.42;;;;;;;17.23;91.23;99002.89;1639053;86;21644;-79
2022/06/13 02:10:02;;;;;;;15.93;8.08;;;;;;;17.26;90.29;99013.69;1633394;86;21828;-78
2022/06/13 02:12:33;;;;;;;13.40;8.98;;;;;;;17.32;91.83;99012.52;1639443;86;21092;-79
2022/06/13 02:15:14;;;;;;;15.48;8.25;;;;;;;17.35;91.08;99007.08;1639849;83;21013;-79
2022/06/13 02:17:48;;;;;;;14.70;7.90;;;;;;;17.32;91.25;99008.10;1639940;86;21029;-78
2022/06/13 02:20:20;;;;;;;13.98;8.18;;;;;;;17.33;91.30;99003.69;1619466;88;21061;-79
2022/06/13 02:22:54;;;;;;;12.20;7.25;;;;;;;17.31;91.60;99009.05;1664982;85;21082;-79
2022/06/13 02:25:37;;;;;;;13.55;7.08;;;;;;;17.32;91.96;99008.10;1635010;86;21022;-82
2022/06/13 02:28:17;;;;;;;9.10;6.08;;;;;;;17.32;92.86;99004.63;1639845;86;21101;-79
2022/06/13 02:31:02;;;;;;;10.72;6.83;;;;;;;17.28;92.04;98996.91;1636333;86;20983;-79
2022/06/13 02:33:37;;;;;;;13.53;6.37;;;;;;;17.19;91.95;99000.05;1580890;88;21532;-80
2022/06/13 02:36:21;;;;;;;9.83;6.20;;;;;;;17.19;92.46;99005.30;1607034;88;21062;-78
2022/06/13 02:39:02;;;;;;;9.78;6.25;;;;;;;17.20;92.32;99009.61;1634892;88;21050;-79
2022/06/13 02:41:37;;;;;;;13.25;7.10;;;;;;;17.21;91.58;99010.01;1663743;85;21039;-79
2022/06/13 02:44:09;;;;;;;10.58;6.72;;;;;;;17.19;91.38;99005.30;1619671;86;21039;-83
2022/06/13 02:46:53;;;;;;;9.48;6.50;;;;;;;17.24;93.17;99005.05;1611454;87;21077;-80
2022/06/13 02:49:33;;;;;;;11.50;7.15;;;;;;;17.33;92.71;99012.88;1594247;88;21119;-80
2022/06/13 02:52:11;;;;;;;10.60;6.60;;;;;;;17.35;93.06;99018.91;1629558;86;21007;-81
2022/06/13 02:55:00;;;;;;;10.63;6.72;;;;;;;17.39;93.10;99015.17;1624412;87;21094;-80
2022/06/13 02:57:41;;;;;;;11.53;6.78;;;;;;;17.44;92.47;99021.05;1626399;86;21035;-80
2022/06/13 03:00:46;;;;;;;12.25;6.40;;;;;;;17.48;92.51;99027.35;1624270;87;21375;-79
2022/06/13 03:03:26;;;;;;;11.25;6.45;;;;;;;17.55;92.97;99023.07;1630588;86;21066;-79
2022/06/13 03:06:10;;;;;;;10.78;6.37;;;;;;;17.60;91.29;99019.73;1623395;87;21098;-79
2022/06/13 03:09:01;;;;;;;;;;;;;;;17.56;91.03;99020.84;1634509;86;21034;-81
2022/06/13 03:11:52;;;;;;;11.33;6.35;;;;;;;17.63;93.18;99026.99;1619543;86;20128;-80
2022/06/13 03:14:39;;;;;;;10.65;6.67;;;;;;;17.70;92.73;99036.22;1622952;87;21053;-79
2022/06/13 03:17:23;;;;;;;11.85;6.00;;;;;;;17.78;91.89;99024.44;1636245;87;21015;-80
2022/06/13 03:19:58;;;;;;;10.68;6.55;;;;;;;17.82;91.66;99030.75;1620289;87;21081;-80
2022/06/13 03:22:45;;;;;;;10.50;6.25;;;;;;;17.82;91.69;99036.48;1635083;86;21058;-80
2022/06/13 03:25:42;;;;;;;10.13;6.08;;;;;;;17.88;91.70;99035.69;1618940;87;21060;-80
2022/06/13 03:28:24;;;;;;;11.85;5.87;;;;;;;17.95;90.64;99034.91;1631297;86;21035;-80
2022/06/13 03:31:07;;;;;;;12.43;6.55;;;;;;;17.98;90.98;99041.28;1627339;87;21319;-79
2022/06/13 03:33:42;;;;;;;8.78;5.97;;;;;;;18.01;91.05;99038.97;1630328;86;21555;-81
2022/06/13 03:36:19;;;;;;;11.10;6.10;;;;;;;18.06;90.99;99037.78;1605461;88;21062;-80
2022/06/13 03:39:13;;;;;;;9.73;5.40;;;;;;;18.13;90.72;99036.95;1630555;86;21035;-80
2022/06/13 03:41:47;;;;;;;8.93;5.95;;;;;;;18.15;89.67;99034.25;1622276;87;21018;-79
2022/06/13 03:44:25;;;;;;;12.10;6.62;;;;;;;18.03;89.84;99035.79;1634595;86;21039;-80
2022/06/13 03:47:06;;;;;;;9.15;6.10;;;;;;;18.02;89.80;99035.39;1626611;87;21482;-81
2022/06/13 03:49:44;;;;;;;10.38;6.33;;;;;;;18.03;89.43;99034.00;1631348;86;21032;-82
2022/06/13 03:52:14;;;;;;;12.75;7.10;;;;;;;18.00;90.13;99025.42;1607445;88;21039;-80
2022/06/13 03:54:45;;;;;;;11.30;6.65;;;;;;;17.99;90.20;99029.84;1616622;87;21109;-80
2022/06/13 03:57:32;;;;;;;13.58;7.45;;;;;;;17.96;90.36;99031.32;1629828;86;20999;-80
2022/06/13 04:00:19;;;;;;;9.53;6.40;;;;;;;17.89;89.72;99031.30;1617635;87;21065;-80
2022/06/13 04:02:47;;;;;;;11.08;6.62;;;;;;;17.85;90.84;99029.78;1618468;86;21555;-80
2022/06/13 04:05:22;;;;;;;12.90;7.33;;;;;;;17.85;90.31;99035.05;1615065;87;21033;-80
2022/06/13 04:07:49;;;;;;;12.45;7.17;;;;;;;17.84;90.24;99024.97;1619076;86;21541;-80
2022/06/13 04:10:18;;;;;;;11.93;7.12;;;;;;;17.85;90.09;99027.99;1617180;87;21038;-80
2022/06/13 04:13:26;;;;;;;11.97;7.28;;;;;;;17.90;90.39;99027.72;1635365;86;21071;-80
2022/06/13 04:16:04;;;;;;;11.75;7.70;;;;;;;17.93;90.65;99029.36;1589538;87;21605;-80
2022/06/13 04:19:14;;;;;;;18.37;8.13;;;;;;;18.06;90.86;99027.27;1636692;86;21042;-80
2022/06/13 04:21:58;;;;;;;14.95;7.72;;;;;;;18.19;90.46;99022.12;1616960;87;21605;-80
2022/06/13 04:24:48;;;;;;;14.68;8.15;;;;;;;18.31;89.65;99025.84;1633147;86;21066;-79
2022/06/13 04:27:35;;;;;;;15.80;8.08;;;;;;;18.33;89.30;99031.86;1629790;86;21035;-80
2022/06/13 04:30:14;;;;;;;13.10;8.03;;;;;;;18.37;89.63;99024.16;1606886;88;20992;-81
2022/06/13 04:33:05;;;;;;;14.28;8.28;;;;;;;18.43;89.36;99025.59;1618643;87;21612;-82
2022/06/13 04:35:33;;;;;;;12.85;7.97;;;;;;;18.52;89.31;99025.03;1619518;86;21653;-79
2022/06/13 04:38:04;;;;;;;13.28;7.05;;;;;;;18.63;89.23;99026.58;1631111;86;21557;-78
2022/06/13 04:40:33;;;;;;;16.42;8.95;;;;;;;18.72;88.68;99026.52;1638521;86;21030;-77
2022/06/13 04:43:02;;;;;;;13.00;8.08;;;;;;;18.78;88.55;99025.27;1626306;86;21010;-78
2022/06/13 04:45:34;;;;;;;14.00;8.18;;;;;;;18.85;88.14;99030.59;1639032;86;21062;-78
2022/06/13 04:48:01;;;;;;;12.73;8.13;;;;;;;18.90;87.85;99036.89;1627099;86;21069;-77
2022/06/13 04:50:42;;;;;;;15.08;9.10;;;;;;;18.94;87.52;99037.09;1636094;86;21050;-79
2022/06/13 04:53:14;;;;;;;12.78;7.75;;;;;;;19.01;87.46;99029.20;1628993;86;21098;-78
2022/06/13 04:55:45;;;;;;;15.05;7.75;;;;;;;19.05;86.64;99018.84;1637215;86;21633;-77
2022/06/13 04:58:31;;;;;;;11.85;7.85;;;;;;;19.06;86.43;99024.52;1630661;86;21561;-79
2022/06/13 05:01:35;;;;;;;12.28;7.75;;;;;;;19.04;86.31;99029.87;1617160;87;21066;-78
2022/06/13 05:04:06;;;;;;;14.80;8.45;;;;;;;19.12;86.71;99027.22;1619950;86;21437;-78
2022/06/13 05:06:52;;;;;;;13.62;8.23;;;;;;;19.19;86.44;99030.70;1638598;86;21083;-77
2022/06/13 05:09:23;;;;;;;13.22;7.37;;;;;;;19.28;86.17;99027.98;1616698;86;21122;-78
2022/06/13 05:12:23;;;;;;;13.03;6.80;;;;;;;19.24;85.41;99026.48;1638840;85;21107;-78
2022/06/13 05:14:59;;;;;;;11.38;6.90;;;;;;;19.27;85.46;99025.80;1610766;87;21066;-79
2022/06/13 05:18:04;;;;;;;11.60;6.90;;;;;;;19.32;85.20;99022.03;1638538;86;21443;-79
2022/06/13 05:20:48;;;;;;;12.82;7.15;;;;;;;19.41;85.36;99021.47;1630617;86;21585;-79
2022/06/13 05:23:33;;;;;;;;;;;;;;;19.54;85.56;99021.08;1621466;86;21050;-77
2022/06/13 05:26:02;;;;;;;12.20;6.65;;;;;;;19.60;85.35;99024.64;1639580;86;20109;-78
2022/06/13 05:28:32;;;;;;;10.40;6.00;;;;;;;19.69;84.23;99015.29;1631087;86;21048;-78
2022/06/13 05:31:01;;;;;;;11.25;7.03;;;;;;;19.73;83.24;99008.06;1632468;86;21031;-78
2022/06/13 05:33:35;;;;;;;11.63;7.10;;;;;;;19.77;83.42;99014.83;1632175;86;21101;-78
2022/06/13 05:36:06;;;;;;;11.20;6.95;;;;;;;19.81;82.61;99012.38;1661704;85;21019;-78
2022/06/13 05:38:52;;;;;;;10.32;7.03;;;;;;;19.83;82.18;99015.75;1638738;86;20979;-79
2022/06/13 05:41:19;;;;;;;9.85;6.12;;;;;;;19.83;82.29;99012.64;1634692;86;21052;-79
2022/06/13 05:43:46;;;;;;;11.55;6.80;;;;;;;19.86;82.53;99020.84;1639133;86;21554;-80
2022/06/13 05:46:17;;;;;;;11.22;6.55;;;;;;;19.91;82.53;99016.09;1632527;86;21072;-78
2022/06/13 05:48:44;;;;;;;10.28;7.00;;;;;;;20.02;82.41;99018.06;1639830;86;21015;-80
2022/06/13 05:51:11;;;;;;;10.00;6.30;;;;;;;20.11;82.37;99017.44;1634423;86;21075;-79
2022/06/13 05:53:38;;;;;;;10.80;7.20;;;;;;;20.24;82.16;99026.73;1638422;86;21015;-79
2022/06/13 05:56:05;;;;;;;11.20;7.12;;;;;;;20.30;81.61;99023.69;1632328;86;21133;-78
2022/06/13 05:58:32;;;;;;;11.38;6.78;;;;;;;20.33;81.50;99028.74;1638976;86;21513;-78
2022/06/13 06:01:01;;;;;;;10.40;6.58;;;;;;;20.36;81.53;99029.88;1637894;86;21110;-78
2022/06/13 06:03:28;;;;;;;9.53;6.65;;;;;;;20.41;81.71;99025.59;1634916;86;21060;-78
2022/06/13 06:05:56;;;;;;;12.50;6.83;;;;;;;20.41;81.30;99026.47;1636290;86;21157;-78
2022/06/13 06:08:28;;;;;;;10.98;7.30;;;;;;;20.44;81.41;99026.24;1614577;87;21045;-77
2022/06/13 06:10:56;;;;;;;10.63;6.55;;;;;;;20.53;81.49;99027.89;1635983;86;22159;-78
2022/06/13 06:13:26;;;;;;;16.12;7.50;;;;;;;20.59;81.39;99016.94;1627514;86;21013;-78
2022/06/13 06:15:54;;;;;;;9.85;6.28;;;;;;;20.66;81.55;99023.03;1637655;86;22354;-78
2022/06/13 06:18:22;;;;;;;9.25;5.65;;;;;;;20.75;81.27;99025.54;1628894;86;21576;-78
2022/06/13 06:20:49;;;;;;;10.93;6.62;;;;;;;20.82;81.04;99016.23;1639171;86;21556;-79
2022/06/13 06:23:16;;;;;;;15.43;6.62;;;;;;;20.86;80.24;99019.03;1625019;86;20985;-78
2022/06/13 06:25:45;;;;;;;9.90;6.87;;;;;;;20.86;80.27;99016.39;1639732;86;21038;-78
2022/06/13 06:28:19;;;;;;;10.40;7.25;;;;;;;20.82;79.65;99013.58;1603561;86;21052;-79
2022/06/13 06:30:46;;;;;;;10.72;7.05;;;;;;;20.89;79.41;99020.63;1639081;86;21067;-79
2022/06/13 06:33:13;;;;;;;10.80;7.20;;;;;;;20.80;79.41;99017.30;1606226;87;21608;-79
2022/06/13 06:35:40;;;;;;;9.65;6.75;;;;;;;20.80;79.31;99019.45;1623788;88;21081;-78
2022/06/13 06:38:07;;;;;;;11.53;7.45;;;;;;;20.83;79.34;99017.06;1632735;86;21548;-79
2022/06/13 06:40:34;;;;;;;11.75;6.95;;;;;;;20.83;78.93;99013.97;1636495;85;21013;-79
2022/06/13 06:43:01;;;;;;;12.98;7.20;;;;;;;20.84;79.03;99010.36;1631322;86;21017;-79
2022/06/13 06:45:28;;;;;;;14.07;7.08;;;;;;;20.90;79.19;99017.03;1651438;85;21028;-79
2022/06/13 06:47:55;;;;;;;9.50;6.97;;;;;;;20.97;79.31;99012.15;1631616;86;21521;-79
2022/06/13 06:50:26;;;;;;;10.68;6.60;;;;;;;21.07;79.33;99015.88;1647459;87;21071;-79
2022/06/13 06:52:53;;;;;;;10.63;6.40;;;;;;;21.17;78.87;99010.76;1634145;86;21049;-78
2022/06/13 07:00:58;;;;;;;10.18;5.95;;;;;;;21.48;77.67;99010.80;1639356;86;21052;-79
2022/06/13 07:03:25;;;;;;;9.70;5.87;;;;;;;21.50;77.17;99004.92;1647458;87;21098;-78
2022/06/13 07:05:52;;;;;;;10.60;6.20;;;;;;;21.55;77.15;99003.28;1639360;86;21033;-78
2022/06/13 07:08:19;;;;;;;11.08;6.17;;;;;;;21.67;76.95;99002.88;1653742;85;21055;-78
2022/06/13 07:10:47;;;;;;;9.33;5.62;;;;;;;21.72;76.44;98991.47;1620470;85;21100;-78
2022/06/13 07:13:17;;;;;;;11.28;6.08;;;;;;;21.84;76.72;98997.19;1653378;85;21062;-78
2022/06/13 07:15:44;;;;;;;9.03;6.45;;;;;;;21.94;76.58;98993.39;1633841;86;21064;-78
2022/06/13 07:18:11;;;;;;;9.25;5.85;;;;;;;22.04;76.37;98995.26;1651864;85;21043;-78
2022/06/13 07:20:38;;;;;;;10.88;6.30;;;;;;;22.17;76.05;98995.66;1623003;86;21648;-78
2022/06/13 07:23:06;;;;;;;9.30;6.45;;;;;;;22.31;75.53;98988.88;1633357;85;21012;-78
2022/06/13 07:25:33;;;;;;;9.48;5.87;;;;;;;22.37;74.49;98995.03;1629264;86;21073;-78
2022/06/13 07:28:00;;;;;;;9.40;5.62;;;;;;;22.39;74.02;98993.11;1650033;85;20992;-79
2022/06/13 07:30:31;;;;;;;10.98;6.00;;;;;;;22.41;74.07;98984.57;1635914;86;21052;-78
2022/06/13 07:32:58;;;;;;;12.30;6.47;;;;;;;22.47;73.19;98985.08;1643833;85;21092;-78
2022/06/13 07:35:26;;;;;;;13.10;6.45;;;;;;;22.50;72.79;98984.83;1633713;86;21538;-78
2022/06/13 07:40:40;;;;;;;11.78;6.90;;;;;;;22.62;72.98;98992.70;1635065;86;21503;-78
2022/06/13 07:43:11;;;;;;;9.85;6.05;;;;;;;22.66;72.78;98989.34;1600629;88;21075;-78
2022/06/13 07:45:39;;;;;;;10.15;5.55;;;;;;;22.79;73.04;98987.91;1605110;88;21019;-78
2022/06/13 07:48:07;;;;;;;9.85;6.30;;;;;;;22.90;73.00;98979.97;1607502;88;21072;-78
2022/06/13 07:50:34;;;;;;;10.32;5.70;;;;;;;23.01;72.64;98979.95;1622798;87;21046;-78
2022/06/13 07:53:01;;;;;;;10.68;5.80;;;;;;;23.16;71.23;98976.62;1631168;86;21535;-78
2022/06/13 07:55:30;;;;;;;11.80;6.45;;;;;;;23.16;71.86;98975.79;1623993;87;21107;-78
2022/06/13 07:57:58;;;;;;;8.30;5.75;;;;;;;23.21;71.88;98972.27;1629197;86;21023;-78
2022/06/13 08:00:32;;;;;;;6.50;4.83;;;;;;;23.25;71.17;98968.91;1609310;88;21575;-77
2022/06/13 08:03:01;;;;;;;7.33;5.28;;;;;;;23.32;71.34;98975.42;1617492;87;21069;-78
2022/06/13 08:05:30;;;;;;;7.92;5.50;;;;;;;23.42;71.44;98973.71;1636862;86;21058;-78
2022/06/13 08:07:57;;;;;;;7.47;5.17;;;;;;;23.53;70.52;98975.48;1617080;87;21087;-78
2022/06/13 08:10:24;;;;;;;9.43;5.15;;;;;;;23.58;70.07;98967.52;1666904;85;21075;-78
2022/06/13 08:12:51;;;;;;;8.68;5.20;;;;;;;23.58;68.91;98959.56;1634813;86;21513;-78
2022/06/13 08:15:17;;;;;;;8.10;5.00;;;;;;;23.63;68.63;98959.17;1666964;85;21031;-78
2022/06/13 08:17:44;;;;;;;10.45;4.62;;;;;;;23.68;67.89;98957.50;1632916;86;21055;-78
2022/06/13 08:20:12;;;;;;;8.85;4.47;;;;;;;23.76;68.82;98952.40;1620704;87;21022;-78
2022/06/13 08:22:45;;;;;;;6.62;4.22;;;;;;;23.91;69.02;98953.80;1633125;86;21047;-78
2022/06/13 08:25:23;;;;;;;6.90;4.47;;;;;;;24.10;69.17;98952.30;1625964;86;21038;-78
2022/06/13 08:27:50;;;;;;;7.35;4.37;;;;;;;24.26;68.41;98948.70;1618924;87;21418;-78
2022/06/13 08:30:16;;;;;;;5.95;4.58;;;;;;;24.41;67.96;98952.73;1630029;86;21039;-77
2022/06/13 08:32:43;;;;;;;11.40;4.65;;;;;;;24.48;65.55;98953.04;1664335;85;21550;-78
2022/06/13 08:35:11;;;;;;;6.55;4.90;;;;;;;24.50;66.31;98948.93;1631230;86;21070;-78
2022/06/13 08:37:38;;;;;;;9.00;5.03;;;;;;;24.53;65.94;98948.69;1621360;87;21512;-78
2022/06/13 08:40:06;;;;;;;6.37;5.10;;;;;;;24.61;66.92;98946.20;1633155;86;21026;-78
2022/06/13 08:42:43;;;;;;;7.08;5.00;;;;;;;24.74;66.71;98941.53;1636308;86;21109;-78
2022/06/13 08:45:43;;;;;;;7.83;4.75;;;;;;;24.80;66.38;98938.34;1608123;87;21042;-78
2022/06/13 08:48:27;;;;;;;6.53;5.00;;;;;;;24.89;66.62;98935.39;1638463;86;20999;-78
2022/06/13 08:51:12;;;;;;;8.45;4.35;;;;;;;25.00;66.32;98931.78;1622281;86;21070;-77
2022/06/13 08:53:56;;;;;;;8.00;4.80;;;;;;;25.12;63.24;98932.52;1638157;86;21078;-79
2022/06/13 08:56:30;;;;;;;9.93;4.97;;;;;;;25.16;63.19;98927.28;1629617;86;21037;-78
2022/06/13 08:59:26;;;;;;;6.30;4.40;;;;;;;25.26;63.82;98926.02;1656280;86;21030;-78
2022/06/13 09:01:42;;;;;;;5.85;4.15;;;;;;;25.35;64.24;98923.88;1614623;86;21077;-78
2022/06/13 09:04:17;;;;;;;7.10;4.50;;;;;;;25.38;63.25;98932.90;1636065;86;21046;-78
2022/06/13 09:06:55;;;;;;;6.12;4.78;;;;;;;25.46;62.96;98930.89;1628077;86;21537;-79
2022/06/13 09:09:37;;;;;;;8.40;5.12;;;;;;;25.58;63.42;98928.45;1636266;87;21448;-77
2022/06/13 09:12:11;;;;;;;8.38;4.37;;;;;;;25.71;62.45;98926.87;1627993;86;21033;-78
2022/06/13 09:15:04;;;;;;;8.80;4.85;;;;;;;25.87;62.98;98928.48;1636920;86;21015;-78
2022/06/13 09:18:15;;;;;;;6.87;4.40;;;;;;;25.99;61.71;98924.72;1630264;86;21077;-78
2022/06/13 09:21:12;;;;;;;7.65;4.60;;;;;;;26.13;61.22;98922.11;1629002;86;21522;-77
2022/06/13 09:23:56;;;;;;;9.13;4.65;;;;;;;26.26;61.28;98920.50;1627437;86;21561;-78
2022/06/13 09:26:40;;;;;;;6.70;4.62;;;;;;;26.39;61.12;98918.34;1632872;86;21599;-78
2022/06/13 09:29:26;;;;;;;6.53;4.50;;;;;;;26.48;60.28;98924.66;1633350;86;21597;-77
2022/06/13 09:32:07;;;;;;;5.95;4.53;;;;;;;26.64;60.59;98920.09;1636534;86;21046;-78
2022/06/13 09:34:39;;;;;;;6.58;4.37;;;;;;;26.78;58.83;98915.61;1632260;86;21073;-77
2022/06/13 09:37:31;;;;;;;6.03;4.70;;;;;;;26.82;56.19;98906.83;1631242;86;21054;-78
2022/06/13 09:39:59;;;;;;;9.03;4.33;;;;;;;26.97;57.93;98907.16;1632441;86;21081;-77
2022/06/13 09:42:34;;;;;;;7.33;4.67;;;;;;;27.08;56.21;98904.78;1634247;86;21543;-78
2022/06/13 09:45:24;;;;;;;8.20;4.97;;;;;;;27.04;56.95;98906.93;1634480;86;21052;-78
2022/06/13 09:48:04;;;;;;;8.80;4.20;;;;;;;27.14;56.85;98905.55;1635880;86;21533;-79
2022/06/13 09:51:06;;;;;;;8.28;4.35;;;;;;;27.23;57.34;98895.30;1635926;86;21092;-77
2022/06/13 09:53:52;;;;;;;5.83;4.62;;;;;;;27.27;56.47;98883.86;1635826;86;21056;-79
2022/06/13 09:56:33;;;;;;;5.72;4.40;;;;;;;27.47;57.27;98882.73;1637820;86;21055;-79
2022/06/13 09:59:26;;;;;;;7.65;5.10;;;;;;;27.64;57.62;98884.25;1654573;85;21547;-79
2022/06/13 10:02:11;;;;;;;;;;;;;;;27.74;56.74;98880.49;1641574;86;21599;-80
2022/06/13 10:05:06;;;;;;;6.67;4.80;;;;;;;27.83;56.76;98884.06;1633161;86;20126;-79
2022/06/13 10:07:44;;;;;;;7.30;4.40;;;;;;;27.99;57.15;98873.20;1634987;86;20994;-79
2022/06/13 10:10:19;;;;;;;8.75;4.72;;;;;;;28.16;56.54;98878.52;1629299;87;21625;-79
2022/06/13 10:13:28;;;;;;;6.53;4.62;;;;;;;28.28;55.80;98868.41;1603481;86;21602;-79
2022/06/13 10:16:00;;;;;;;8.15;5.17;;;;;;;28.29;55.30;98853.20;1635829;86;20995;-79
2022/06/13 10:18:54;;;;;;;7.40;5.17;;;;;;;28.41;55.03;98847.95;1634325;86;21041;-80
2022/06/13 10:21:50;;;;;;;8.55;4.67;;;;;;;28.55;53.51;98846.04;1638572;86;21121;-79
2022/06/13 10:24:31;;;;;;;7.08;4.45;;;;;;;28.66;54.44;98847.58;1632179;86;21051;-79
2022/06/13 10:27:09;;;;;;;6.62;4.65;;;;;;;28.70;52.53;98837.41;1639165;86;21093;-78
2022/06/13 10:29:53;;;;;;;10.72;4.35;;;;;;;28.62;50.64;98838.20;1631226;86;21062;-80
2022/06/13 10:32:44;;;;;;;6.58;4.53;;;;;;;28.61;48.27;98837.02;1635548;86;21549;-78
2022/06/13 10:35:49;;;;;;;11.73;4.83;;;;;;;28.59;50.32;98835.87;1638752;85;22218;-79
2022/06/13 10:38:56;;;;;;;6.53;4.47;;;;;;;28.61;51.14;98831.20;1639263;86;21044;-80
2022/06/13 10:41:26;;;;;;;6.10;4.40;;;;;;;28.73;49.97;98831.24;1648310;85;21060;-79
2022/06/13 10:43:55;;;;;;;8.28;4.40;;;;;;;29.01;50.34;98824.31;1639166;86;21064;-79
2022/06/13 10:46:22;;;;;;;8.80;4.97;;;;;;;29.20;49.99;98826.38;1641657;85;21052;-79
2022/06/13 10:49:06;;;;;;;8.38;4.60;;;;;;;29.18;48.60;98827.87;1632966;86;21049;-79
2022/06/13 10:51:35;;;;;;;6.62;4.40;;;;;;;29.31;49.38;98820.22;1633585;85;21020;-80
2022/06/13 10:54:15;;;;;;;8.13;5.12;;;;;;;29.40;48.24;98822.91;1618639;87;21032;-79
2022/06/13 10:56:53;;;;;;;6.05;4.37;;;;;;;29.50;48.63;98812.86;1646026;85;21611;-79
2022/06/13 10:59:27;;;;;;;8.35;4.85;;;;;;;29.64;47.93;98813.53;1621911;86;21489;-79
2022/06/13 11:02:01;;;;;;;7.17;5.25;;;;;;;29.76;48.51;98802.00;1628642;87;21036;-79
2022/06/13 11:04:35;;;;;;;6.60;4.62;;;;;;;29.93;48.37;98797.48;1621917;86;21537;-79
2022/06/13 11:07:15;;;;;;;8.80;4.92;;;;;;;30.07;48.33;98796.77;1639473;85;21047;-80
2022/06/13 11:09:46;;;;;;;7.05;4.55;;;;;;;30.18;47.88;98796.08;1649600;85;21075;-78
2022/06/13 11:12:30;;;;;;;8.80;4.80;;;;;;;30.19;47.95;98792.41;1659153;85;21082;-79
2022/06/13 11:23:53;;;;;;;7.42;4.37;;;;;;;30.39;46.21;98766.05;1652958;85;21036;-79
2022/06/13 11:29:14;;;;;;;6.85;4.62;;;;;;;30.45;43.89;98776.91;1634280;86;21049;-80
2022/06/13 11:31:54;;;;;;;6.10;4.17;;;;;;;30.48;42.54;98773.04;1649131;85;21040;-79
2022/06/13 11:34:35;;;;;;;7.87;4.22;;;;;;;30.46;43.95;98762.99;1632032;86;21060;-79
2022/06/13 11:37:23;;;;;;;6.97;4.50;;;;;;;30.69;43.82;98761.20;1615506;87;21076;-79
2022/06/13 11:39:53;;;;;;;7.55;4.30;;;;;;;31.00;42.53;98755.52;1631334;86;21042;-79
2022/06/13 11:42:32;;;;;;;8.20;4.25;;;;;;;31.25;42.00;98746.80;1625562;87;21089;-79
2022/06/13 11:45:06;;;;;;;8.65;4.70;;;;;;;31.36;38.93;98758.98;1629547;86;21023;-80
2022/06/13 11:47:44;;;;;;;7.12;4.50;;;;;;;31.53;40.45;98753.80;1654726;86;21100;-81
2022/06/13 11:50:21;;;;;;;6.85;4.75;;;;;;;31.87;40.03;98755.16;1634332;87;21121;-80
2022/06/13 11:55:57;;;;;;;9.80;4.25;;;;;;;32.44;38.63;98746.98;1633382;86;21098;-81
2022/06/13 11:58:28;;;;;;;8.63;4.70;;;;;;;32.59;36.13;98750.53;1622507;88;21037;-80
2022/06/13 12:01:18;;;;;;;6.78;4.97;;;;;;;32.44;37.71;98760.44;1633464;86;21033;-80
2022/06/13 12:04:13;;;;;;;6.90;4.60;;;;;;;32.52;37.74;98758.98;1618901;86;21093;-81
2022/06/13 12:06:59;;;;;;;8.70;5.00;;;;;;;32.72;37.50;98757.08;1627486;85;21068;-80
2022/06/13 12:09:33;;;;;;;9.20;4.70;;;;;;;32.97;37.40;98754.37;1625844;87;21097;-81
2022/06/13 12:12:04;;;;;;;9.70;4.62;;;;;;;33.03;33.83;98759.50;1625672;88;21039;-81
2022/06/13 12:14:39;;;;;;;9.33;4.65;;;;;;;32.87;34.43;98757.89;1619547;87;21061;-79
2022/06/13 12:17:20;;;;;;;7.78;4.60;;;;;;;32.67;35.59;98758.48;1635031;88;21031;-80
2022/06/13 12:20:04;;;;;;;7.62;4.45;;;;;;;32.40;35.54;98757.80;1578015;87;21384;-81
2022/06/13 12:23:03;;;;;;;6.67;4.55;;;;;;;32.23;35.72;98751.28;1634834;86;21051;-81
2022/06/13 12:25:50;;;;;;;9.20;4.58;;;;;;;32.25;36.39;98755.97;1621236;88;21002;-81
2022/06/13 12:28:23;;;;;;;9.98;5.05;;;;;;;31.93;35.58;98757.63;1631053;86;20987;-80
2022/06/13 12:31:14;;;;;;;8.55;4.15;;;;;;;31.67;35.88;98750.30;1622023;87;21141;-80
2022/06/13 12:34:21;;;;;;;4.87;3.30;;;;;;;31.49;35.54;98757.35;1634331;88;22083;-81
2022/06/13 12:37:24;;;;;;;5.17;3.17;;;;;;;30.98;36.72;98752.17;1614996;87;21061;-79
2022/06/13 12:40:04;;;;;;;4.33;2.62;;;;;;;30.26;36.34;98757.17;1604543;88;21074;-80